BOE002 KBFI-KBFI
Flight info
| Callsign | BOE002 |
|---|---|
| Flight time | 0h 48m |
| Altitude | 40000 |
| Route | DCT PERLL DCT ARRIE J523 TOU/N0488F410 DCT HQM DCT OLM OLM2 |
| Aircraft | B77W/H-SDE1E2E3FGHIJ2J3J4J5M1RWXY/LB1D1 |
Departure
| Time | 2026-04-23 14:39 |
|---|---|
| Airport | King County International Airport - Boeing Field (KBFI) |
Arrival
| Time | 2026-04-23 15:27 |
|---|---|
| Airport | King County International Airport - Boeing Field (KBFI) |
| Time | Latitude | Longitude | Altitude | Speed | Heading |
|---|---|---|---|---|---|
| 2026-04-23 14:30 | 47.54017 | -122.31377 | 32 ft | 0 kts | 179° |
| 2026-04-23 14:34 | 47.54016 | -122.31377 | 32 ft | 0 kts | 179° |
| 2026-04-23 14:35 | 47.54015 | -122.31377 | 32 ft | 0 kts | 179° |
| 2026-04-23 14:35 | 47.54009 | -122.31377 | 32 ft | 2 kts | 179° |
| 2026-04-23 14:35 | 47.53988 | -122.31376 | 32 ft | 4 kts | 179° |
| 2026-04-23 14:36 | 47.53962 | -122.31355 | 32 ft | 5 kts | 123° |
| 2026-04-23 14:36 | 47.53969 | -122.31299 | 32 ft | 7 kts | 70° |
| 2026-04-23 14:36 | 47.53992 | -122.31221 | 32 ft | 10 kts | 62° |
| 2026-04-23 14:36 | 47.54009 | -122.31117 | 32 ft | 11 kts | 107° |
| 2026-04-23 14:37 | 47.53984 | -122.31079 | 32 ft | 0 kts | 148° |
| 2026-04-23 14:38 | 47.53929 | -122.31029 | 32 ft | 31 kts | 148° |
| 2026-04-23 14:38 | 47.53596 | -122.30746 | 29 ft | 77 kts | 150° |
| 2026-04-23 14:39 | 47.52985 | -122.30231 | 30 ft | 139 kts | 150° |
| 2026-04-23 14:39 | 47.51917 | -122.29350 | 631 ft | 179 kts | 152° |
| 2026-04-23 14:39 | 47.50766 | -122.28416 | 2241 ft | 198 kts | 154° |
| 2026-04-23 14:39 | 47.49423 | -122.27288 | 3336 ft | 240 kts | 152° |
| 2026-04-23 14:40 | 47.47911 | -122.26001 | 4438 ft | 259 kts | 151° |
| 2026-04-23 14:40 | 47.46314 | -122.24640 | 5777 ft | 271 kts | 150° |
| 2026-04-23 14:40 | 47.44640 | -122.23215 | 7071 ft | 283 kts | 149° |
| 2026-04-23 14:40 | 47.42893 | -122.21735 | 8284 ft | 296 kts | 149° |
| 2026-04-23 14:41 | 47.41068 | -122.20195 | 9530 ft | 308 kts | 149° |
| 2026-04-23 14:41 | 47.39109 | -122.18795 | 10585 ft | 320 kts | 166° |
| 2026-04-23 14:41 | 47.36814 | -122.18660 | 11255 ft | 346 kts | 194° |
| 2026-04-23 14:41 | 47.34538 | -122.20130 | 11648 ft | 373 kts | 221° |
| 2026-04-23 14:42 | 47.32792 | -122.23009 | 12521 ft | 380 kts | 243° |
| 2026-04-23 14:42 | 47.31701 | -122.26534 | 13860 ft | 377 kts | 259° |
| 2026-04-23 14:42 | 47.31410 | -122.30318 | 15166 ft | 370 kts | 279° |
| 2026-04-23 14:42 | 47.32137 | -122.33902 | 16391 ft | 367 kts | 302° |
| 2026-04-23 14:43 | 47.33789 | -122.36753 | 17564 ft | 369 kts | 320° |
| 2026-04-23 14:43 | 47.35815 | -122.39146 | 18666 ft | 378 kts | 323° |
| 2026-04-23 14:43 | 47.37933 | -122.41509 | 19696 ft | 384 kts | 324° |
| 2026-04-23 14:43 | 47.40068 | -122.43909 | 20807 ft | 389 kts | 323° |
| 2026-04-23 14:44 | 47.42187 | -122.46351 | 21888 ft | 394 kts | 323° |
| 2026-04-23 14:44 | 47.44344 | -122.48889 | 22910 ft | 400 kts | 323° |
| 2026-04-23 14:44 | 47.46529 | -122.51498 | 23893 ft | 406 kts | 322° |
| 2026-04-23 14:44 | 47.48739 | -122.54152 | 24724 ft | 411 kts | 323° |
| 2026-04-23 14:45 | 47.50965 | -122.56830 | 25576 ft | 416 kts | 323° |
| 2026-04-23 14:45 | 47.53189 | -122.59593 | 26413 ft | 420 kts | 319° |
| 2026-04-23 14:45 | 47.55233 | -122.62751 | 27187 ft | 427 kts | 314° |
| 2026-04-23 14:45 | 47.57107 | -122.66202 | 27932 ft | 434 kts | 310° |
| 2026-04-23 14:46 | 47.58793 | -122.69956 | 28641 ft | 442 kts | 304° |
| 2026-04-23 14:46 | 47.60334 | -122.73932 | 29290 ft | 447 kts | 303° |
| 2026-04-23 14:46 | 47.61855 | -122.77975 | 29903 ft | 451 kts | 303° |
| 2026-04-23 14:46 | 47.63364 | -122.82016 | 30427 ft | 456 kts | 303° |
| 2026-04-23 14:47 | 47.64910 | -122.86147 | 30953 ft | 457 kts | 303° |
| 2026-04-23 14:47 | 47.66453 | -122.90254 | 31654 ft | 454 kts | 304° |
| 2026-04-23 14:47 | 47.67987 | -122.94321 | 32399 ft | 450 kts | 304° |
| 2026-04-23 14:47 | 47.69515 | -122.98366 | 33048 ft | 448 kts | 305° |
| 2026-04-23 14:48 | 47.71033 | -123.02379 | 33801 ft | 444 kts | 305° |
| 2026-04-23 14:48 | 47.72541 | -123.06360 | 34469 ft | 442 kts | 305° |
| 2026-04-23 14:48 | 47.74051 | -123.10355 | 34875 ft | 445 kts | 305° |
| 2026-04-23 14:48 | 47.75571 | -123.14383 | 35184 ft | 448 kts | 304° |
| 2026-04-23 14:49 | 47.77094 | -123.18430 | 35492 ft | 450 kts | 304° |
| 2026-04-23 14:49 | 47.78624 | -123.22506 | 35929 ft | 450 kts | 304° |
| 2026-04-23 14:49 | 47.80153 | -123.26579 | 36351 ft | 451 kts | 304° |
| 2026-04-23 14:49 | 47.81682 | -123.30659 | 36773 ft | 452 kts | 303° |
| 2026-04-23 14:50 | 47.83212 | -123.34748 | 37137 ft | 454 kts | 303° |
| 2026-04-23 14:50 | 47.84730 | -123.38815 | 37540 ft | 455 kts | 303° |
| 2026-04-23 14:50 | 47.86268 | -123.42941 | 37947 ft | 456 kts | 303° |
| 2026-04-23 14:50 | 47.87807 | -123.47074 | 38309 ft | 458 kts | 303° |
| 2026-04-23 14:51 | 47.89354 | -123.51230 | 38705 ft | 459 kts | 303° |
| 2026-04-23 14:51 | 47.90903 | -123.55393 | 39064 ft | 459 kts | 302° |
| 2026-04-23 14:51 | 47.92458 | -123.59576 | 39167 ft | 464 kts | 302° |
| 2026-04-23 14:51 | 47.94029 | -123.63806 | 39210 ft | 466 kts | 302° |
| 2026-04-23 14:52 | 47.97138 | -123.72214 | 39226 ft | 459 kts | 302° |
| 2026-04-23 14:52 | 48.00232 | -123.80599 | 39527 ft | 462 kts | 302° |
| 2026-04-23 14:53 | 48.01779 | -123.84804 | 39857 ft | 462 kts | 302° |
| 2026-04-23 14:53 | 48.03324 | -123.89010 | 40195 ft | 461 kts | 302° |
| 2026-04-23 14:53 | 48.06427 | -123.97475 | 40233 ft | 465 kts | 302° |
| 2026-04-23 14:54 | 48.09505 | -124.05903 | 40216 ft | 459 kts | 302° |
| 2026-04-23 14:54 | 48.12556 | -124.14279 | 40219 ft | 458 kts | 302° |
| 2026-04-23 14:55 | 48.15597 | -124.22655 | 40224 ft | 457 kts | 302° |
| 2026-04-23 14:55 | 48.18343 | -124.31226 | 40215 ft | 462 kts | 287° |
| 2026-04-23 14:56 | 48.18691 | -124.36038 | 40214 ft | 472 kts | 271° |
| 2026-04-23 14:56 | 48.18414 | -124.39294 | 40219 ft | 479 kts | 261° |
| 2026-04-23 14:56 | 48.17269 | -124.44016 | 40222 ft | 489 kts | 245° |
| 2026-04-23 14:56 | 48.15311 | -124.48223 | 40224 ft | 498 kts | 230° |
| 2026-04-23 14:57 | 48.12615 | -124.51547 | 40238 ft | 508 kts | 212° |
| 2026-04-23 14:57 | 48.08195 | -124.53872 | 40595 ft | 514 kts | 188° |
| 2026-04-23 14:57 | 48.04631 | -124.53833 | 40974 ft | 514 kts | 169° |
| 2026-04-23 14:57 | 48.01163 | -124.52619 | 41185 ft | 512 kts | 165° |
| 2026-04-23 14:58 | 47.95390 | -124.50362 | 41224 ft | 516 kts | 165° |
| 2026-04-23 14:58 | 47.88457 | -124.47720 | 41226 ft | 511 kts | 166° |
| 2026-04-23 14:59 | 47.81559 | -124.45226 | 41221 ft | 508 kts | 166° |
| 2026-04-23 14:59 | 47.74678 | -124.42795 | 41226 ft | 507 kts | 167° |
| 2026-04-23 15:00 | 47.67822 | -124.40380 | 41230 ft | 506 kts | 167° |
| 2026-04-23 15:00 | 47.60961 | -124.37962 | 41229 ft | 507 kts | 167° |
| 2026-04-23 15:01 | 47.54118 | -124.35553 | 41232 ft | 508 kts | 167° |
| 2026-04-23 15:01 | 47.47228 | -124.33134 | 41233 ft | 509 kts | 167° |
| 2026-04-23 15:02 | 47.40319 | -124.30715 | 41234 ft | 510 kts | 167° |
| 2026-04-23 15:02 | 47.33394 | -124.28298 | 41236 ft | 511 kts | 167° |
| 2026-04-23 15:03 | 47.26475 | -124.25889 | 41235 ft | 510 kts | 167° |
| 2026-04-23 15:03 | 47.23035 | -124.24694 | 41121 ft | 506 kts | 167° |
| 2026-04-23 15:03 | 47.19647 | -124.23518 | 40805 ft | 507 kts | 167° |
| 2026-04-23 15:04 | 47.16171 | -124.22313 | 40391 ft | 509 kts | 167° |
| 2026-04-23 15:04 | 47.12758 | -124.21132 | 40005 ft | 510 kts | 166° |
| 2026-04-23 15:04 | 47.09299 | -124.19936 | 39674 ft | 510 kts | 166° |
| 2026-04-23 15:04 | 47.05847 | -124.18744 | 39347 ft | 509 kts | 166° |
| 2026-04-23 15:05 | 47.02495 | -124.17123 | 38881 ft | 508 kts | 152° |
| 2026-04-23 15:05 | 46.99591 | -124.14239 | 38291 ft | 505 kts | 134° |
| 2026-04-23 15:05 | 46.97364 | -124.10308 | 37748 ft | 498 kts | 118° |
| 2026-04-23 15:05 | 46.95870 | -124.05773 | 37227 ft | 492 kts | 106° |
| 2026-04-23 15:06 | 46.95005 | -124.00976 | 36687 ft | 485 kts | 93° |
| 2026-04-23 15:06 | 46.94924 | -123.96107 | 36081 ft | 476 kts | 83° |
| 2026-04-23 15:06 | 46.95081 | -123.91290 | 35392 ft | 472 kts | 81° |
| 2026-04-23 15:06 | 46.95260 | -123.86493 | 34661 ft | 468 kts | 81° |
| 2026-04-23 15:07 | 46.95424 | -123.81774 | 33882 ft | 457 kts | 81° |
| 2026-04-23 15:07 | 46.95560 | -123.77183 | 33060 ft | 444 kts | 82° |
| 2026-04-23 15:07 | 46.95672 | -123.72791 | 32255 ft | 432 kts | 82° |
| 2026-04-23 15:07 | 46.95773 | -123.68454 | 31474 ft | 422 kts | 83° |
| 2026-04-23 15:08 | 46.95866 | -123.64209 | 30714 ft | 413 kts | 83° |
| 2026-04-23 15:08 | 46.95954 | -123.60036 | 29903 ft | 405 kts | 83° |
| 2026-04-23 15:08 | 46.96038 | -123.55951 | 29070 ft | 398 kts | 83° |
| 2026-04-23 15:09 | 46.96200 | -123.47962 | 27439 ft | 386 kts | 83° |
| 2026-04-23 15:09 | 46.96277 | -123.44062 | 26664 ft | 381 kts | 83° |
| 2026-04-23 15:09 | 46.96351 | -123.40205 | 25899 ft | 376 kts | 83° |
| 2026-04-23 15:09 | 46.96422 | -123.36403 | 25161 ft | 372 kts | 83° |
| 2026-04-23 15:10 | 46.96469 | -123.33908 | 24678 ft | 369 kts | 84° |
| 2026-04-23 15:10 | 46.96561 | -123.28959 | 23740 ft | 364 kts | 84° |
| 2026-04-23 15:10 | 46.96627 | -123.25261 | 22924 ft | 361 kts | 84° |
| 2026-04-23 15:10 | 46.96692 | -123.21610 | 22128 ft | 358 kts | 84° |
| 2026-04-23 15:11 | 46.96755 | -123.17971 | 21339 ft | 355 kts | 84° |
| 2026-04-23 15:11 | 46.96815 | -123.14361 | 20585 ft | 352 kts | 84° |
| 2026-04-23 15:11 | 46.96876 | -123.10791 | 19839 ft | 349 kts | 84° |
| 2026-04-23 15:11 | 46.96935 | -123.07259 | 19135 ft | 346 kts | 84° |
| 2026-04-23 15:12 | 46.96992 | -123.03756 | 18401 ft | 343 kts | 84° |
| 2026-04-23 15:12 | 46.97047 | -123.00325 | 17724 ft | 338 kts | 84° |
| 2026-04-23 15:12 | 46.97098 | -122.96930 | 17477 ft | 337 kts | 84° |
| 2026-04-23 15:12 | 46.97169 | -122.93477 | 17294 ft | 336 kts | 79° |
| 2026-04-23 15:13 | 46.97789 | -122.90277 | 17284 ft | 322 kts | 57° |
| 2026-04-23 15:13 | 46.99076 | -122.87684 | 17282 ft | 310 kts | 39° |
| 2026-04-23 15:13 | 47.00678 | -122.85613 | 17282 ft | 306 kts | 35° |
| 2026-04-23 15:13 | 47.02311 | -122.83587 | 17275 ft | 307 kts | 35° |
| 2026-04-23 15:14 | 47.03937 | -122.81542 | 17280 ft | 308 kts | 36° |
| 2026-04-23 15:14 | 47.05564 | -122.79482 | 17155 ft | 311 kts | 36° |
| 2026-04-23 15:14 | 47.07190 | -122.77417 | 16643 ft | 316 kts | 36° |
| 2026-04-23 15:14 | 47.08854 | -122.75298 | 16143 ft | 317 kts | 36° |
| 2026-04-23 15:15 | 47.10517 | -122.73174 | 15649 ft | 318 kts | 36° |
| 2026-04-23 15:15 | 47.12185 | -122.71039 | 15153 ft | 318 kts | 36° |
| 2026-04-23 15:15 | 47.13857 | -122.68897 | 14676 ft | 318 kts | 36° |
| 2026-04-23 15:15 | 47.15527 | -122.66756 | 14206 ft | 318 kts | 36° |
| 2026-04-23 15:16 | 47.17199 | -122.64612 | 13688 ft | 318 kts | 36° |
| 2026-04-23 15:16 | 47.18858 | -122.62481 | 13350 ft | 313 kts | 36° |
| 2026-04-23 15:16 | 47.20469 | -122.60406 | 13246 ft | 300 kts | 36° |
| 2026-04-23 15:16 | 47.22003 | -122.58427 | 13236 ft | 288 kts | 35° |
| 2026-04-23 15:17 | 47.23527 | -122.56471 | 13250 ft | 292 kts | 35° |
| 2026-04-23 15:17 | 47.25053 | -122.54510 | 13256 ft | 290 kts | 35° |
| 2026-04-23 15:17 | 47.26539 | -122.52593 | 13239 ft | 281 kts | 35° |
| 2026-04-23 15:17 | 47.27969 | -122.50741 | 13233 ft | 267 kts | 35° |
| 2026-04-23 15:18 | 47.29334 | -122.48974 | 13176 ft | 256 kts | 34° |
| 2026-04-23 15:18 | 47.30735 | -122.47481 | 12755 ft | 245 kts | 17° |
| 2026-04-23 15:18 | 47.32390 | -122.46984 | 12255 ft | 244 kts | 359° |
| 2026-04-23 15:18 | 47.34109 | -122.46934 | 11700 ft | 251 kts | 358° |
| 2026-04-23 15:19 | 47.35888 | -122.46917 | 11149 ft | 259 kts | 358° |
| 2026-04-23 15:19 | 47.37724 | -122.46901 | 10588 ft | 267 kts | 358° |
| 2026-04-23 15:19 | 47.39571 | -122.46882 | 10016 ft | 263 kts | 359° |
| 2026-04-23 15:19 | 47.41378 | -122.46859 | 9382 ft | 256 kts | 359° |
| 2026-04-23 15:20 | 47.42546 | -122.46843 | 8971 ft | 252 kts | 359° |
| 2026-04-23 15:20 | 47.44812 | -122.46809 | 8103 ft | 239 kts | 359° |
| 2026-04-23 15:20 | 47.46454 | -122.46783 | 7480 ft | 233 kts | 359° |
| 2026-04-23 15:20 | 47.48060 | -122.46757 | 6858 ft | 229 kts | 360° |
| 2026-04-23 15:21 | 47.49644 | -122.46732 | 6211 ft | 226 kts | 360° |
| 2026-04-23 15:21 | 47.51212 | -122.46706 | 5576 ft | 224 kts | 0° |
| 2026-04-23 15:21 | 47.52769 | -122.46680 | 4926 ft | 223 kts | 0° |
| 2026-04-23 15:21 | 47.54314 | -122.46653 | 4264 ft | 222 kts | 359° |
| 2026-04-23 15:22 | 47.55857 | -122.46627 | 3617 ft | 222 kts | 359° |
| 2026-04-23 15:22 | 47.57406 | -122.46602 | 2966 ft | 223 kts | 359° |
| 2026-04-23 15:22 | 47.58923 | -122.46575 | 2628 ft | 210 kts | 358° |
| 2026-04-23 15:22 | 47.60329 | -122.46549 | 2438 ft | 193 kts | 358° |
| 2026-04-23 15:23 | 47.61687 | -122.46527 | 2464 ft | 197 kts | 358° |
| 2026-04-23 15:23 | 47.63054 | -122.46420 | 2447 ft | 197 kts | 13° |
| 2026-04-23 15:23 | 47.64170 | -122.45322 | 2456 ft | 196 kts | 57° |
| 2026-04-23 15:23 | 47.64556 | -122.43447 | 2359 ft | 195 kts | 96° |
| 2026-04-23 15:24 | 47.64084 | -122.41610 | 1996 ft | 192 kts | 133° |
| 2026-04-23 15:24 | 47.63196 | -122.40199 | 1881 ft | 186 kts | 139° |
| 2026-04-23 15:24 | 47.62263 | -122.38828 | 1859 ft | 187 kts | 139° |
| 2026-04-23 15:24 | 47.61348 | -122.37487 | 1846 ft | 183 kts | 140° |
| 2026-04-23 15:25 | 47.60355 | -122.36383 | 1877 ft | 172 kts | 154° |
| 2026-04-23 15:25 | 47.59380 | -122.35568 | 1868 ft | 150 kts | 155° |
| 2026-04-23 15:25 | 47.58489 | -122.34837 | 1605 ft | 149 kts | 156° |
| 2026-04-23 15:25 | 47.57522 | -122.34130 | 1040 ft | 156 kts | 154° |
| 2026-04-23 15:26 | 47.56642 | -122.33339 | 831 ft | 140 kts | 151° |
| 2026-04-23 15:26 | 47.55845 | -122.32641 | 521 ft | 127 kts | 152° |
| 2026-04-23 15:26 | 47.55082 | -122.32010 | 325 ft | 126 kts | 150° |
| 2026-04-23 15:26 | 47.54302 | -122.31337 | 133 ft | 132 kts | 151° |
| 2026-04-23 15:27 | 47.53520 | -122.30682 | 29 ft | 121 kts | 150° |
| 2026-04-23 15:27 | 47.52895 | -122.30157 | 28 ft | 86 kts | 150° |
| 2026-04-23 15:27 | 47.52470 | -122.29801 | 29 ft | 59 kts | 150° |
| 2026-04-23 15:27 | 47.52240 | -122.29605 | 30 ft | 40 kts | 150° |